createdAt,value
2019-03-12T00:03:17.949Z,88.00
2019-03-12T00:09:22.199Z,88.10
2019-03-12T00:15:24.329Z,87.80
2019-03-12T00:21:26.448Z,87.80
2019-03-12T00:27:28.559Z,87.70
2019-03-12T00:33:30.795Z,89.10
2019-03-12T00:39:32.985Z,90.10
2019-03-12T00:45:35.403Z,90.10
2019-03-12T00:51:37.604Z,90.20
2019-03-12T00:57:39.788Z,90.30
2019-03-12T01:03:41.979Z,90.10
2019-03-12T01:09:44.221Z,90.20
2019-03-12T01:15:46.422Z,90.50
2019-03-12T01:21:48.690Z,90.70
2019-03-12T01:27:50.834Z,90.90
2019-03-12T01:33:53.083Z,91.00
2019-03-12T01:39:55.351Z,91.30
2019-03-12T01:45:57.648Z,91.20
2019-03-12T01:51:59.892Z,91.40
2019-03-12T01:58:02.172Z,91.70
2019-03-12T02:04:04.320Z,91.70
2019-03-12T02:10:07.231Z,91.80
2019-03-12T02:16:09.480Z,91.80
2019-03-12T02:22:11.668Z,91.80
2019-03-12T02:28:13.770Z,92.10
2019-03-12T02:34:15.944Z,92.10
2019-03-12T02:40:18.230Z,91.80
2019-03-12T02:46:20.363Z,92.00
2019-03-12T02:52:22.628Z,92.00
2019-03-12T02:58:24.787Z,92.10
2019-03-12T03:04:27.038Z,92.00
2019-03-12T03:10:29.334Z,92.10
2019-03-12T03:16:31.703Z,92.20
2019-03-12T03:22:33.827Z,92.20
2019-03-12T03:28:35.962Z,92.10
2019-03-12T03:34:38.110Z,92.00
2019-03-12T03:40:40.457Z,91.90
2019-03-12T03:46:42.573Z,91.90
2019-03-12T03:52:44.734Z,91.80
2019-03-12T03:58:46.888Z,91.80
2019-03-12T04:04:49.184Z,91.90
2019-03-12T04:10:51.384Z,92.30
2019-03-12T04:16:53.575Z,91.80
2019-03-12T04:22:55.785Z,91.90
2019-03-12T04:28:57.926Z,91.70
2019-03-12T04:35:00.056Z,91.80
2019-03-12T04:41:02.279Z,91.70
2019-03-12T04:47:04.655Z,91.70
2019-03-12T04:53:06.791Z,91.70
2019-03-12T04:59:08.958Z,91.50
2019-03-12T05:05:11.125Z,91.40
2019-03-12T05:11:13.406Z,91.20
2019-03-12T05:17:36.483Z,91.10
2019-03-12T05:23:38.719Z,91.20
2019-03-12T05:29:40.836Z,91.20
2019-03-12T05:35:42.969Z,90.90
2019-03-12T05:41:46.362Z,90.90
2019-03-12T05:47:48.754Z,90.70
2019-03-12T05:53:51.148Z,90.70
2019-03-12T05:59:53.383Z,90.70
2019-03-12T06:05:57.809Z,90.70
2019-03-12T06:12:00.071Z,90.40
2019-03-12T06:18:02.300Z,90.40
2019-03-12T06:24:04.555Z,90.20
2019-03-12T06:30:07.955Z,90.20
2019-03-12T06:36:14.962Z,90.40
2019-03-12T06:42:28.332Z,90.90
2019-03-12T06:57:11.812Z,90.50
2019-03-12T07:11:27.118Z,90.50
2019-03-12T09:05:26.216Z,86.50
2019-03-12T09:11:36.220Z,85.40
2019-03-12T09:17:42.415Z,84.20
2019-03-12T09:23:46.535Z,82.00
2019-03-12T09:30:05.641Z,79.10
2019-03-12T09:36:09.884Z,77.30
2019-03-12T09:42:30.363Z,75.40
2019-03-12T09:48:40.458Z,76.80
2019-03-12T09:54:47.722Z,76.70
2019-03-12T10:01:08.617Z,78.40
2019-03-12T10:07:12.924Z,79.50
2019-03-12T10:13:23.747Z,80.00
2019-03-12T10:19:37.221Z,80.00
2019-03-12T10:25:50.476Z,78.20
2019-03-12T10:32:12.988Z,77.10
2019-03-12T10:38:53.688Z,76.70
2019-03-12T10:44:57.770Z,74.40
2019-03-12T10:51:00.172Z,71.90
2019-03-12T10:57:02.363Z,70.20
2019-03-12T11:03:04.641Z,68.00
2019-03-12T11:09:06.986Z,67.20
2019-03-12T11:15:09.886Z,67.80
2019-03-12T11:21:14.771Z,68.20
2019-03-12T11:27:17.171Z,67.90
2019-03-12T11:33:19.370Z,67.40
2019-03-12T11:39:21.672Z,68.00
2019-03-12T11:45:35.795Z,68.80
2019-03-12T11:51:28.925Z,69.90
2019-03-12T11:57:31.451Z,71.00
2019-03-12T12:03:33.951Z,71.50
2019-03-12T12:09:36.385Z,71.90
2019-03-12T12:15:38.878Z,71.30
2019-03-12T12:21:45.956Z,67.20
2019-03-12T12:27:48.480Z,65.50
2019-03-12T12:33:51.177Z,65.20
2019-03-12T12:39:53.365Z,63.60
2019-03-12T12:45:55.771Z,63.90
2019-03-12T12:51:58.187Z,61.80
2019-03-12T12:58:00.617Z,59.20
2019-03-12T13:04:04.026Z,60.70
2019-03-12T13:10:10.782Z,58.50
2019-03-12T13:16:24.362Z,55.30
2019-03-12T13:22:21.732Z,56.80
2019-03-12T13:28:25.156Z,54.40
2019-03-12T13:34:27.767Z,54.20
2019-03-12T13:40:30.053Z,53.90
2019-03-12T13:46:32.537Z,54.30
2019-03-12T13:52:35.096Z,53.60
2019-03-12T13:58:37.589Z,53.80
2019-03-12T14:04:40.019Z,53.40
2019-03-12T14:10:43.409Z,54.00
2019-03-12T14:16:45.717Z,52.70
2019-03-12T14:22:50.027Z,50.00
2019-03-12T14:28:52.853Z,52.20
2019-03-12T14:34:55.071Z,52.10
2019-03-12T14:40:57.423Z,51.30
2019-03-12T14:46:59.721Z,50.40
2019-03-12T14:53:07.547Z,51.00
2019-03-12T14:59:10.468Z,52.40
2019-03-12T15:05:13.271Z,52.00
2019-03-12T15:11:15.806Z,53.20
2019-03-12T15:17:18.185Z,52.20
2019-03-12T15:23:20.655Z,50.30
2019-03-12T15:29:23.589Z,50.00
2019-03-12T15:35:26.903Z,49.10
2019-03-12T15:41:29.198Z,49.40
2019-03-12T15:47:33.889Z,50.80
2019-03-12T15:53:36.255Z,49.50
2019-03-12T15:59:38.423Z,50.10
2019-03-12T16:05:40.787Z,51.30
2019-03-12T16:11:42.980Z,52.10
2019-03-12T16:17:45.291Z,52.50
2019-03-12T16:23:47.964Z,53.20
2019-03-12T16:29:50.170Z,54.20
2019-03-12T16:35:52.756Z,54.30
2019-03-12T16:42:04.216Z,54.40
2019-03-12T16:48:06.631Z,55.90
2019-03-12T16:54:09.904Z,57.40
2019-03-12T17:00:12.257Z,58.60
2019-03-12T17:06:15.552Z,60.80
2019-03-12T17:12:18.043Z,61.20
2019-03-12T17:18:20.333Z,65.00
2019-03-12T17:24:22.699Z,67.50
2019-03-12T17:30:27.573Z,69.30
2019-03-12T17:36:29.932Z,72.10
2019-03-12T17:42:32.276Z,73.20
2019-03-12T17:48:36.784Z,74.40
2019-03-12T17:54:39.016Z,75.80
2019-03-12T18:00:43.117Z,77.50
2019-03-12T18:06:45.378Z,78.10
2019-03-12T18:12:47.726Z,78.90
2019-03-12T18:18:49.955Z,79.20
2019-03-12T18:24:54.074Z,79.80
2019-03-12T18:30:57.301Z,80.60
2019-03-12T18:37:00.652Z,83.00
2019-03-12T18:43:03.035Z,82.80
2019-03-12T18:49:05.404Z,84.00
2019-03-12T18:55:12.510Z,83.50
2019-03-12T19:01:15.418Z,83.80
2019-03-12T19:07:18.296Z,85.10
2019-03-12T19:13:20.930Z,86.00
2019-03-12T19:19:23.518Z,85.70
2019-03-12T19:25:26.586Z,86.00
2019-03-12T19:31:31.110Z,86.60
2019-03-12T19:37:33.304Z,86.10
2019-03-12T19:43:35.725Z,86.70
2019-03-12T19:49:38.115Z,86.80
2019-03-12T19:55:41.755Z,86.80
2019-03-12T20:01:44.771Z,86.80
2019-03-12T20:07:47.016Z,87.40
2019-03-12T20:14:31.053Z,87.40
2019-03-12T20:21:10.267Z,87.40
2019-03-12T20:27:55.400Z,87.10
2019-03-12T20:34:42.331Z,87.00
2019-03-12T20:41:21.052Z,86.80
2019-03-12T20:47:51.200Z,86.70
2019-03-12T20:54:26.917Z,86.80
2019-03-12T21:01:17.391Z,87.30
2019-03-12T21:08:09.303Z,86.40
2019-03-12T21:15:08.350Z,86.00
2019-03-12T21:22:03.694Z,86.40
2019-03-12T21:28:33.721Z,86.20
2019-03-12T21:34:35.850Z,86.00
2019-03-12T21:40:38.211Z,84.60
2019-03-12T21:46:40.463Z,84.20
2019-03-12T21:52:42.675Z,84.10
2019-03-12T21:58:44.925Z,82.80
2019-03-12T22:04:47.136Z,83.00
2019-03-12T22:10:49.329Z,82.50
2019-03-12T22:16:53.152Z,82.80
2019-03-12T22:23:00.280Z,82.20
2019-03-12T22:29:02.875Z,82.20
2019-03-12T22:35:05.239Z,82.80
2019-03-12T22:41:07.504Z,82.50
2019-03-12T22:47:09.715Z,83.10
2019-03-12T22:53:11.914Z,82.80
2019-03-12T22:59:15.149Z,82.60
2019-03-12T23:05:17.435Z,81.60
2019-03-12T23:11:19.687Z,81.60
2019-03-12T23:17:21.995Z,81.00
2019-03-12T23:23:24.199Z,81.60
2019-03-12T23:29:26.379Z,81.10
2019-03-12T23:35:28.730Z,80.60
2019-03-12T23:41:30.963Z,81.20
2019-03-12T23:47:33.482Z,80.70
2019-03-12T23:53:36.145Z,80.30
2019-03-12T23:59:38.467Z,81.00
